sensor_id;sensor_type;location;lat;lon;timestamp;temperature;humidity
53711;DHT22;39605;52.704;6.752;2022-08-21T00:01:21;16.60;99.90
53711;DHT22;39605;52.704;6.752;2022-08-21T00:03:47;16.50;99.90
53711;DHT22;39605;52.704;6.752;2022-08-21T00:06:13;16.50;99.90
53711;DHT22;39605;52.704;6.752;2022-08-21T00:08:39;16.50;99.90
53711;DHT22;39605;52.704;6.752;2022-08-21T00:11:05;16.50;99.90
53711;DHT22;39605;52.704;6.752;2022-08-21T00:13:34;16.50;99.90
53711;DHT22;39605;52.704;6.752;2022-08-21T00:16:00;16.50;99.90
53711;DHT22;39605;52.704;6.752;2022-08-21T00:18:26;16.50;99.90
53711;DHT22;39605;52.704;6.752;2022-08-21T00:20:52;16.50;99.90
53711;DHT22;39605;52.704;6.752;2022-08-21T00:23:18;16.50;99.90
53711;DHT22;39605;52.704;6.752;2022-08-21T00:25:44;16.50;99.90
53711;DHT22;39605;52.704;6.752;2022-08-21T00:28:10;16.50;99.90
53711;DHT22;39605;52.704;6.752;2022-08-21T00:30:37;16.40;99.90
53711;DHT22;39605;52.704;6.752;2022-08-21T00:33:04;16.50;99.90
53711;DHT22;39605;52.704;6.752;2022-08-21T00:35:33;16.50;99.90
53711;DHT22;39605;52.704;6.752;2022-08-21T00:37:59;16.50;99.90
53711;DHT22;39605;52.704;6.752;2022-08-21T00:40:35;16.50;99.90
53711;DHT22;39605;52.704;6.752;2022-08-21T00:43:04;16.50;99.90
53711;DHT22;39605;52.704;6.752;2022-08-21T00:45:31;16.50;99.90
53711;DHT22;39605;52.704;6.752;2022-08-21T00:47:57;16.50;99.90
53711;DHT22;39605;52.704;6.752;2022-08-21T00:50:26;16.40;99.90
53711;DHT22;39605;52.704;6.752;2022-08-21T00:52:54;16.40;99.90
53711;DHT22;39605;52.704;6.752;2022-08-21T00:55:22;16.40;99.90
53711;DHT22;39605;52.704;6.752;2022-08-21T00:57:52;16.40;99.90
53711;DHT22;39605;52.704;6.752;2022-08-21T01:00:24;16.30;99.90
53711;DHT22;39605;52.704;6.752;2022-08-21T01:02:49;16.40;99.90
53711;DHT22;39605;52.704;6.752;2022-08-21T01:05:15;16.30;99.90
53711;DHT22;39605;52.704;6.752;2022-08-21T01:07:42;16.30;99.90
53711;DHT22;39605;52.704;6.752;2022-08-21T01:10:10;16.30;99.90
53711;DHT22;39605;52.704;6.752;2022-08-21T01:12:36;16.20;99.90
53711;DHT22;39605;52.704;6.752;2022-08-21T01:15:04;16.20;99.90
53711;DHT22;39605;52.704;6.752;2022-08-21T01:17:31;16.20;99.90
53711;DHT22;39605;52.704;6.752;2022-08-21T01:19:58;16.10;99.90
53711;DHT22;39605;52.704;6.752;2022-08-21T01:22:24;16.10;99.90
53711;DHT22;39605;52.704;6.752;2022-08-21T01:24:50;16.00;99.90
53711;DHT22;39605;52.704;6.752;2022-08-21T01:27:16;16.10;99.90
53711;DHT22;39605;52.704;6.752;2022-08-21T01:29:53;16.00;99.90
53711;DHT22;39605;52.704;6.752;2022-08-21T01:32:20;16.00;99.90
53711;DHT22;39605;52.704;6.752;2022-08-21T01:34:48;16.00;99.90
53711;DHT22;39605;52.704;6.752;2022-08-21T01:37:15;16.00;99.90
53711;DHT22;39605;52.704;6.752;2022-08-21T01:39:42;16.00;99.90
53711;DHT22;39605;52.704;6.752;2022-08-21T01:42:08;15.90;99.90
53711;DHT22;39605;52.704;6.752;2022-08-21T01:44:34;15.90;99.90
53711;DHT22;39605;52.704;6.752;2022-08-21T01:47:03;15.90;99.90
53711;DHT22;39605;52.704;6.752;2022-08-21T01:49:29;15.90;99.90
53711;DHT22;39605;52.704;6.752;2022-08-21T01:51:55;15.90;99.90
53711;DHT22;39605;52.704;6.752;2022-08-21T01:54:23;15.80;99.90
53711;DHT22;39605;52.704;6.752;2022-08-21T01:56:51;15.80;99.90
53711;DHT22;39605;52.704;6.752;2022-08-21T01:59:18;15.70;99.90
53711;DHT22;39605;52.704;6.752;2022-08-21T02:01:44;15.70;99.90
53711;DHT22;39605;52.704;6.752;2022-08-21T02:04:10;15.70;99.90
53711;DHT22;39605;52.704;6.752;2022-08-21T02:06:36;15.70;99.90
53711;DHT22;39605;52.704;6.752;2022-08-21T02:09:04;15.70;99.90
53711;DHT22;39605;52.704;6.752;2022-08-21T02:11:31;15.70;99.90
53711;DHT22;39605;52.704;6.752;2022-08-21T02:13:56;15.60;99.90
53711;DHT22;39605;52.704;6.752;2022-08-21T02:16:22;15.60;99.90
53711;DHT22;39605;52.704;6.752;2022-08-21T02:18:48;15.60;99.90
53711;DHT22;39605;52.704;6.752;2022-08-21T02:21:14;15.50;99.90
53711;DHT22;39605;52.704;6.752;2022-08-21T02:23:40;15.50;99.90
53711;DHT22;39605;52.704;6.752;2022-08-21T02:26:07;15.50;99.90
53711;DHT22;39605;52.704;6.752;2022-08-21T02:28:34;15.50;99.90
53711;DHT22;39605;52.704;6.752;2022-08-21T02:31:01;15.40;99.90
53711;DHT22;39605;52.704;6.752;2022-08-21T02:33:27;15.50;99.90
53711;DHT22;39605;52.704;6.752;2022-08-21T02:35:53;15.40;99.90
53711;DHT22;39605;52.704;6.752;2022-08-21T02:38:24;15.40;99.90
53711;DHT22;39605;52.704;6.752;2022-08-21T02:40:52;15.40;99.90
53711;DHT22;39605;52.704;6.752;2022-08-21T02:43:20;15.40;99.90
53711;DHT22;39605;52.704;6.752;2022-08-21T02:45:48;15.40;99.90
53711;DHT22;39605;52.704;6.752;2022-08-21T02:48:17;15.30;99.90
53711;DHT22;39605;52.704;6.752;2022-08-21T02:50:46;15.40;99.90
53711;DHT22;39605;52.704;6.752;2022-08-21T02:53:14;15.30;99.90
53711;DHT22;39605;52.704;6.752;2022-08-21T02:55:43;15.30;99.90
53711;DHT22;39605;52.704;6.752;2022-08-21T02:58:09;15.30;99.90
53711;DHT22;39605;52.704;6.752;2022-08-21T03:00:36;15.30;99.90
53711;DHT22;39605;52.704;6.752;2022-08-21T03:03:03;15.30;99.90
53711;DHT22;39605;52.704;6.752;2022-08-21T03:05:30;15.20;99.90
53711;DHT22;39605;52.704;6.752;2022-08-21T03:07:57;15.20;99.90
53711;DHT22;39605;52.704;6.752;2022-08-21T03:10:24;15.20;99.90
53711;DHT22;39605;52.704;6.752;2022-08-21T03:12:50;15.20;99.90
53711;DHT22;39605;52.704;6.752;2022-08-21T03:15:20;15.10;99.90
53711;DHT22;39605;52.704;6.752;2022-08-21T03:17:46;15.20;99.90
53711;DHT22;39605;52.704;6.752;2022-08-21T03:20:14;15.20;99.90
53711;DHT22;39605;52.704;6.752;2022-08-21T03:22:41;15.20;99.90
53711;DHT22;39605;52.704;6.752;2022-08-21T03:25:07;15.20;99.90
53711;DHT22;39605;52.704;6.752;2022-08-21T03:27:34;15.10;99.90
53711;DHT22;39605;52.704;6.752;2022-08-21T03:30:01;15.10;99.90
53711;DHT22;39605;52.704;6.752;2022-08-21T03:32:27;15.10;99.90
53711;DHT22;39605;52.704;6.752;2022-08-21T03:34:52;15.20;99.90
53711;DHT22;39605;52.704;6.752;2022-08-21T03:37:18;15.10;99.90
53711;DHT22;39605;52.704;6.752;2022-08-21T03:39:44;15.10;99.90
53711;DHT22;39605;52.704;6.752;2022-08-21T03:42:11;15.10;99.90
53711;DHT22;39605;52.704;6.752;2022-08-21T03:44:37;15.10;99.90
53711;DHT22;39605;52.704;6.752;2022-08-21T03:47:05;15.10;99.90
53711;DHT22;39605;52.704;6.752;2022-08-21T03:49:30;15.00;99.90
53711;DHT22;39605;52.704;6.752;2022-08-21T03:51:56;15.00;99.90
53711;DHT22;39605;52.704;6.752;2022-08-21T03:54:22;14.90;99.90
53711;DHT22;39605;52.704;6.752;2022-08-21T03:56:47;15.00;99.90
53711;DHT22;39605;52.704;6.752;2022-08-21T03:59:13;15.00;99.90
53711;DHT22;39605;52.704;6.752;2022-08-21T04:01:39;15.00;99.90
53711;DHT22;39605;52.704;6.752;2022-08-21T04:04:05;14.90;99.90
53711;DHT22;39605;52.704;6.752;2022-08-21T04:06:31;14.90;99.90
53711;DHT22;39605;52.704;6.752;2022-08-21T04:08:57;14.90;99.90
53711;DHT22;39605;52.704;6.752;2022-08-21T04:11:23;14.90;99.90
53711;DHT22;39605;52.704;6.752;2022-08-21T04:13:49;14.80;99.90
53711;DHT22;39605;52.704;6.752;2022-08-21T04:16:15;14.90;99.90
53711;DHT22;39605;52.704;6.752;2022-08-21T04:18:41;14.90;99.90
53711;DHT22;39605;52.704;6.752;2022-08-21T04:21:09;14.90;99.90
53711;DHT22;39605;52.704;6.752;2022-08-21T04:23:36;14.90;99.90
53711;DHT22;39605;52.704;6.752;2022-08-21T04:26:01;14.90;99.90
53711;DHT22;39605;52.704;6.752;2022-08-21T04:28:28;14.80;99.90
53711;DHT22;39605;52.704;6.752;2022-08-21T04:30:54;14.80;99.90
53711;DHT22;39605;52.704;6.752;2022-08-21T04:33:21;14.80;99.90
53711;DHT22;39605;52.704;6.752;2022-08-21T04:35:47;14.80;99.90
53711;DHT22;39605;52.704;6.752;2022-08-21T04:38:14;14.80;99.90
53711;DHT22;39605;52.704;6.752;2022-08-21T04:40:39;14.80;99.90
53711;DHT22;39605;52.704;6.752;2022-08-21T04:43:07;14.90;99.90
53711;DHT22;39605;52.704;6.752;2022-08-21T04:45:36;14.80;99.90
53711;DHT22;39605;52.704;6.752;2022-08-21T04:48:04;14.80;99.90
53711;DHT22;39605;52.704;6.752;2022-08-21T04:50:34;14.90;99.90
53711;DHT22;39605;52.704;6.752;2022-08-21T04:53:01;14.90;99.90
53711;DHT22;39605;52.704;6.752;2022-08-21T04:55:27;14.90;99.90
53711;DHT22;39605;52.704;6.752;2022-08-21T04:57:55;14.90;99.90
53711;DHT22;39605;52.704;6.752;2022-08-21T05:00:22;14.90;99.90
53711;DHT22;39605;52.704;6.752;2022-08-21T05:02:51;14.90;99.90
53711;DHT22;39605;52.704;6.752;2022-08-21T05:05:20;14.90;99.90
53711;DHT22;39605;52.704;6.752;2022-08-21T05:07:46;15.00;99.90
53711;DHT22;39605;52.704;6.752;2022-08-21T05:10:13;15.00;99.90
53711;DHT22;39605;52.704;6.752;2022-08-21T05:12:39;15.00;99.90
53711;DHT22;39605;52.704;6.752;2022-08-21T05:15:07;15.00;99.90
53711;DHT22;39605;52.704;6.752;2022-08-21T05:17:33;15.10;99.90
53711;DHT22;39605;52.704;6.752;2022-08-21T05:19:59;15.10;99.90
53711;DHT22;39605;52.704;6.752;2022-08-21T05:22:24;15.10;99.90
53711;DHT22;39605;52.704;6.752;2022-08-21T05:24:51;15.10;99.90
53711;DHT22;39605;52.704;6.752;2022-08-21T05:27:17;15.20;99.90
53711;DHT22;39605;52.704;6.752;2022-08-21T05:29:43;15.20;99.90
53711;DHT22;39605;52.704;6.752;2022-08-21T05:32:13;15.20;99.90
53711;DHT22;39605;52.704;6.752;2022-08-21T05:34:39;15.30;99.90
53711;DHT22;39605;52.704;6.752;2022-08-21T05:37:05;15.30;99.90
53711;DHT22;39605;52.704;6.752;2022-08-21T05:39:31;15.30;99.90
53711;DHT22;39605;52.704;6.752;2022-08-21T05:41:57;15.30;99.90
53711;DHT22;39605;52.704;6.752;2022-08-21T05:44:23;15.30;99.90
53711;DHT22;39605;52.704;6.752;2022-08-21T05:46:48;15.30;99.90
53711;DHT22;39605;52.704;6.752;2022-08-21T05:49:14;15.40;99.90
53711;DHT22;39605;52.704;6.752;2022-08-21T05:51:40;15.40;99.90
53711;DHT22;39605;52.704;6.752;2022-08-21T05:54:06;15.50;99.90
53711;DHT22;39605;52.704;6.752;2022-08-21T05:56:32;15.50;99.90
53711;DHT22;39605;52.704;6.752;2022-08-21T05:58:58;15.50;99.90
53711;DHT22;39605;52.704;6.752;2022-08-21T06:01:24;15.50;99.90
53711;DHT22;39605;52.704;6.752;2022-08-21T06:03:50;15.50;99.90
53711;DHT22;39605;52.704;6.752;2022-08-21T06:06:16;15.50;99.90
53711;DHT22;39605;52.704;6.752;2022-08-21T06:08:42;15.60;99.90
53711;DHT22;39605;52.704;6.752;2022-08-21T06:11:09;15.60;99.90
53711;DHT22;39605;52.704;6.752;2022-08-21T06:13:35;15.70;99.90
53711;DHT22;39605;52.704;6.752;2022-08-21T06:16:07;15.80;99.90
53711;DHT22;39605;52.704;6.752;2022-08-21T06:18:34;15.90;99.90
53711;DHT22;39605;52.704;6.752;2022-08-21T06:21:00;15.90;99.90
53711;DHT22;39605;52.704;6.752;2022-08-21T06:23:26;16.00;99.90
53711;DHT22;39605;52.704;6.752;2022-08-21T06:25:51;16.00;99.90
53711;DHT22;39605;52.704;6.752;2022-08-21T06:28:17;16.10;99.90
53711;DHT22;39605;52.704;6.752;2022-08-21T06:30:43;16.10;99.90
53711;DHT22;39605;52.704;6.752;2022-08-21T06:33:08;16.20;99.90
53711;DHT22;39605;52.704;6.752;2022-08-21T06:35:34;16.20;99.90
53711;DHT22;39605;52.704;6.752;2022-08-21T06:38:00;16.30;99.90
53711;DHT22;39605;52.704;6.752;2022-08-21T06:40:27;16.30;99.90
53711;DHT22;39605;52.704;6.752;2022-08-21T06:42:53;16.40;99.90
53711;DHT22;39605;52.704;6.752;2022-08-21T06:45:20;16.40;99.90
53711;DHT22;39605;52.704;6.752;2022-08-21T06:47:46;16.50;99.90
53711;DHT22;39605;52.704;6.752;2022-08-21T06:50:12;16.60;99.90
53711;DHT22;39605;52.704;6.752;2022-08-21T06:52:38;16.70;99.90
53711;DHT22;39605;52.704;6.752;2022-08-21T06:55:09;16.80;99.90
53711;DHT22;39605;52.704;6.752;2022-08-21T06:57:35;17.30;99.90
53711;DHT22;39605;52.704;6.752;2022-08-21T07:00:04;18.20;99.90
53711;DHT22;39605;52.704;6.752;2022-08-21T07:02:30;19.40;99.90
53711;DHT22;39605;52.704;6.752;2022-08-21T07:04:55;20.60;99.90
53711;DHT22;39605;52.704;6.752;2022-08-21T07:07:21;21.60;99.90
53711;DHT22;39605;52.704;6.752;2022-08-21T07:09:46;22.40;99.90
53711;DHT22;39605;52.704;6.752;2022-08-21T07:12:12;22.80;99.90
53711;DHT22;39605;52.704;6.752;2022-08-21T07:14:38;23.30;99.90
53711;DHT22;39605;52.704;6.752;2022-08-21T07:17:04;23.60;99.90
53711;DHT22;39605;52.704;6.752;2022-08-21T07:19:29;23.90;99.90
53711;DHT22;39605;52.704;6.752;2022-08-21T07:21:59;23.70;99.90
53711;DHT22;39605;52.704;6.752;2022-08-21T07:24:25;23.10;99.90
53711;DHT22;39605;52.704;6.752;2022-08-21T07:26:51;22.70;99.90
53711;DHT22;39605;52.704;6.752;2022-08-21T07:29:17;22.30;99.90
53711;DHT22;39605;52.704;6.752;2022-08-21T07:31:44;22.00;99.90
53711;DHT22;39605;52.704;6.752;2022-08-21T07:34:09;22.00;99.90
53711;DHT22;39605;52.704;6.752;2022-08-21T07:36:35;22.30;99.90
53711;DHT22;39605;52.704;6.752;2022-08-21T07:39:00;22.70;99.90
53711;DHT22;39605;52.704;6.752;2022-08-21T07:41:27;23.00;99.90
53711;DHT22;39605;52.704;6.752;2022-08-21T07:43:55;23.10;99.90
53711;DHT22;39605;52.704;6.752;2022-08-21T07:46:21;22.80;99.90
53711;DHT22;39605;52.704;6.752;2022-08-21T07:48:46;22.50;99.90
53711;DHT22;39605;52.704;6.752;2022-08-21T07:51:15;22.20;99.90
53711;DHT22;39605;52.704;6.752;2022-08-21T07:53:42;22.00;99.90
53711;DHT22;39605;52.704;6.752;2022-08-21T07:56:08;21.90;99.90
53711;DHT22;39605;52.704;6.752;2022-08-21T07:58:34;21.70;99.90
53711;DHT22;39605;52.704;6.752;2022-08-21T08:01:00;21.70;99.90
53711;DHT22;39605;52.704;6.752;2022-08-21T08:03:25;21.50;99.90
53711;DHT22;39605;52.704;6.752;2022-08-21T08:05:51;21.40;99.90
53711;DHT22;39605;52.704;6.752;2022-08-21T08:08:17;21.40;99.90
53711;DHT22;39605;52.704;6.752;2022-08-21T08:10:43;21.30;99.90
53711;DHT22;39605;52.704;6.752;2022-08-21T08:13:10;21.20;99.90
53711;DHT22;39605;52.704;6.752;2022-08-21T08:15:36;21.10;99.90
53711;DHT22;39605;52.704;6.752;2022-08-21T08:18:02;21.00;99.90
53711;DHT22;39605;52.704;6.752;2022-08-21T08:20:28;20.90;99.90
53711;DHT22;39605;52.704;6.752;2022-08-21T08:22:55;20.90;99.90
53711;DHT22;39605;52.704;6.752;2022-08-21T08:25:22;20.80;99.90
53711;DHT22;39605;52.704;6.752;2022-08-21T08:27:49;20.70;99.90
53711;DHT22;39605;52.704;6.752;2022-08-21T08:30:17;20.70;99.90
53711;DHT22;39605;52.704;6.752;2022-08-21T08:32:44;20.80;99.90
53711;DHT22;39605;52.704;6.752;2022-08-21T08:35:10;20.80;99.90
53711;DHT22;39605;52.704;6.752;2022-08-21T08:37:38;20.80;99.90
53711;DHT22;39605;52.704;6.752;2022-08-21T08:40:10;20.80;99.90
53711;DHT22;39605;52.704;6.752;2022-08-21T08:42:36;20.80;99.90
53711;DHT22;39605;52.704;6.752;2022-08-21T08:45:09;20.90;99.90
53711;DHT22;39605;52.704;6.752;2022-08-21T08:47:43;21.00;99.90
53711;DHT22;39605;52.704;6.752;2022-08-21T08:50:48;21.00;99.90
53711;DHT22;39605;52.704;6.752;2022-08-21T08:53:25;21.20;99.90
53711;DHT22;39605;52.704;6.752;2022-08-21T08:55:53;21.40;99.90
53711;DHT22;39605;52.704;6.752;2022-08-21T08:58:24;21.40;99.90
53711;DHT22;39605;52.704;6.752;2022-08-21T09:00:51;21.50;99.90
53711;DHT22;39605;52.704;6.752;2022-08-21T09:03:17;21.60;99.90
53711;DHT22;39605;52.704;6.752;2022-08-21T09:05:55;21.50;99.90
53711;DHT22;39605;52.704;6.752;2022-08-21T09:16:09;22.20;99.90
53711;DHT22;39605;52.704;6.752;2022-08-21T09:18:53;22.30;99.90
53711;DHT22;39605;52.704;6.752;2022-08-21T09:24:40;22.70;99.90
53711;DHT22;39605;52.704;6.752;2022-08-21T09:27:09;22.80;99.90
53711;DHT22;39605;52.704;6.752;2022-08-21T09:29:41;22.90;99.90
53711;DHT22;39605;52.704;6.752;2022-08-21T09:32:23;23.00;99.90
53711;DHT22;39605;52.704;6.752;2022-08-21T09:37:31;23.00;99.90
53711;DHT22;39605;52.704;6.752;2022-08-21T09:39:58;23.10;99.90
53711;DHT22;39605;52.704;6.752;2022-08-21T09:42:29;23.10;99.80
53711;DHT22;39605;52.704;6.752;2022-08-21T09:45:17;23.10;99.50
53711;DHT22;39605;52.704;6.752;2022-08-21T09:47:43;23.20;99.60
53711;DHT22;39605;52.704;6.752;2022-08-21T09:50:17;23.20;99.90
53711;DHT22;39605;52.704;6.752;2022-08-21T09:52:51;23.30;99.90
53711;DHT22;39605;52.704;6.752;2022-08-21T09:55:30;23.30;98.70
53711;DHT22;39605;52.704;6.752;2022-08-21T09:58:16;23.30;98.80
53711;DHT22;39605;52.704;6.752;2022-08-21T10:00:43;23.40;99.20
53711;DHT22;39605;52.704;6.752;2022-08-21T10:03:20;23.40;98.50
53711;DHT22;39605;52.704;6.752;2022-08-21T10:06:05;23.50;97.50
53711;DHT22;39605;52.704;6.752;2022-08-21T10:08:34;23.50;97.40
53711;DHT22;39605;52.704;6.752;2022-08-21T10:11:13;23.60;98.70
53711;DHT22;39605;52.704;6.752;2022-08-21T10:14:10;23.70;98.40
53711;DHT22;39605;52.704;6.752;2022-08-21T10:19:55;23.70;96.90
53711;DHT22;39605;52.704;6.752;2022-08-21T10:22:37;23.70;97.10
53711;DHT22;39605;52.704;6.752;2022-08-21T10:31:15;24.10;97.80
53711;DHT22;39605;52.704;6.752;2022-08-21T10:33:54;24.20;97.30
53711;DHT22;39605;52.704;6.752;2022-08-21T10:39:32;24.80;97.90
53711;DHT22;39605;52.704;6.752;2022-08-21T10:44:38;25.20;97.20
53711;DHT22;39605;52.704;6.752;2022-08-21T10:47:49;25.40;97.60
53711;DHT22;39605;52.704;6.752;2022-08-21T10:55:44;25.00;95.80
53711;DHT22;39605;52.704;6.752;2022-08-21T10:58:19;24.90;96.20
53711;DHT22;39605;52.704;6.752;2022-08-21T11:01:04;24.90;94.60
53711;DHT22;39605;52.704;6.752;2022-08-21T11:03:42;25.00;95.90
53711;DHT22;39605;52.704;6.752;2022-08-21T11:08:45;25.30;94.30
53711;DHT22;39605;52.704;6.752;2022-08-21T11:13:58;25.70;95.60
53711;DHT22;39605;52.704;6.752;2022-08-21T11:16:33;25.50;95.30
53711;DHT22;39605;52.704;6.752;2022-08-21T11:21:54;25.50;94.60
53711;DHT22;39605;52.704;6.752;2022-08-21T11:24:29;25.30;95.30
53711;DHT22;39605;52.704;6.752;2022-08-21T11:30:00;25.60;94.80
53711;DHT22;39605;52.704;6.752;2022-08-21T11:40:42;26.50;91.90
53711;DHT22;39605;52.704;6.752;2022-08-21T11:45:50;26.70;93.80
53711;DHT22;39605;52.704;6.752;2022-08-21T11:50:54;26.80;92.90
53711;DHT22;39605;52.704;6.752;2022-08-21T11:56:19;26.80;91.30
53711;DHT22;39605;52.704;6.752;2022-08-21T11:58:56;26.90;92.90
53711;DHT22;39605;52.704;6.752;2022-08-21T12:01:30;26.90;88.00
53711;DHT22;39605;52.704;6.752;2022-08-21T12:03:58;26.80;91.20
53711;DHT22;39605;52.704;6.752;2022-08-21T12:06:35;26.80;91.50
53711;DHT22;39605;52.704;6.752;2022-08-21T12:09:08;26.90;91.20
53711;DHT22;39605;52.704;6.752;2022-08-21T12:11:47;27.00;91.00
53711;DHT22;39605;52.704;6.752;2022-08-21T12:14:15;27.10;89.70
53711;DHT22;39605;52.704;6.752;2022-08-21T12:16:47;27.20;89.50
53711;DHT22;39605;52.704;6.752;2022-08-21T12:24:18;27.30;88.00
53711;DHT22;39605;52.704;6.752;2022-08-21T12:26:53;27.00;87.30
53711;DHT22;39605;52.704;6.752;2022-08-21T12:29:26;26.90;87.80
53711;DHT22;39605;52.704;6.752;2022-08-21T12:32:18;27.20;89.30
53711;DHT22;39605;52.704;6.752;2022-08-21T12:34:53;27.30;84.70
53711;DHT22;39605;52.704;6.752;2022-08-21T12:42:46;27.70;85.70
53711;DHT22;39605;52.704;6.752;2022-08-21T12:50:57;27.60;84.70
53711;DHT22;39605;52.704;6.752;2022-08-21T12:53:33;27.50;82.00
53711;DHT22;39605;52.704;6.752;2022-08-21T12:56:08;27.50;82.40
53711;DHT22;39605;52.704;6.752;2022-08-21T12:58:34;27.40;81.90
53711;DHT22;39605;52.704;6.752;2022-08-21T13:01:06;27.30;81.80
53711;DHT22;39605;52.704;6.752;2022-08-21T13:03:36;27.20;82.40
53711;DHT22;39605;52.704;6.752;2022-08-21T13:06:06;27.20;83.40
53711;DHT22;39605;52.704;6.752;2022-08-21T13:08:35;27.00;82.20
53711;DHT22;39605;52.704;6.752;2022-08-21T13:11:04;26.90;81.00
53711;DHT22;39605;52.704;6.752;2022-08-21T13:13:31;26.60;81.60
53711;DHT22;39605;52.704;6.752;2022-08-21T13:16:04;26.40;83.30
53711;DHT22;39605;52.704;6.752;2022-08-21T13:18:33;26.30;84.50
53711;DHT22;39605;52.704;6.752;2022-08-21T13:21:14;26.30;86.90
53711;DHT22;39605;52.704;6.752;2022-08-21T13:23:40;26.40;86.70
53711;DHT22;39605;52.704;6.752;2022-08-21T13:26:32;26.60;89.20
53711;DHT22;39605;52.704;6.752;2022-08-21T13:29:07;26.70;87.00
53711;DHT22;39605;52.704;6.752;2022-08-21T13:31:33;26.80;85.10
53711;DHT22;39605;52.704;6.752;2022-08-21T13:33:59;26.60;83.30
53711;DHT22;39605;52.704;6.752;2022-08-21T13:36:29;26.50;85.30
53711;DHT22;39605;52.704;6.752;2022-08-21T13:38:57;26.40;86.10
53711;DHT22;39605;52.704;6.752;2022-08-21T13:41:29;26.20;89.60
53711;DHT22;39605;52.704;6.752;2022-08-21T13:43:58;26.10;86.50
53711;DHT22;39605;52.704;6.752;2022-08-21T13:46:28;25.80;85.30
53711;DHT22;39605;52.704;6.752;2022-08-21T13:48:54;25.60;87.80
53711;DHT22;39605;52.704;6.752;2022-08-21T13:51:21;25.40;89.00
53711;DHT22;39605;52.704;6.752;2022-08-21T13:53:49;25.40;88.30
53711;DHT22;39605;52.704;6.752;2022-08-21T13:56:32;25.40;89.20
53711;DHT22;39605;52.704;6.752;2022-08-21T13:59:00;25.30;90.10
53711;DHT22;39605;52.704;6.752;2022-08-21T14:01:31;25.30;91.10
53711;DHT22;39605;52.704;6.752;2022-08-21T14:04:16;25.30;90.20
53711;DHT22;39605;52.704;6.752;2022-08-21T14:06:45;25.30;91.40
53711;DHT22;39605;52.704;6.752;2022-08-21T14:09:21;25.30;90.10
53711;DHT22;39605;52.704;6.752;2022-08-21T14:11:49;25.20;91.30
53711;DHT22;39605;52.704;6.752;2022-08-21T14:14:32;25.10;90.40
53711;DHT22;39605;52.704;6.752;2022-08-21T14:17:05;25.00;90.80
53711;DHT22;39605;52.704;6.752;2022-08-21T14:19:45;25.30;91.80
53711;DHT22;39605;52.704;6.752;2022-08-21T14:22:41;25.40;91.60
53711;DHT22;39605;52.704;6.752;2022-08-21T14:25:39;25.40;91.20
53711;DHT22;39605;52.704;6.752;2022-08-21T14:28:32;25.40;91.50
53711;DHT22;39605;52.704;6.752;2022-08-21T14:31:11;25.40;92.30
53711;DHT22;39605;52.704;6.752;2022-08-21T14:33:38;25.50;91.70
53711;DHT22;39605;52.704;6.752;2022-08-21T14:36:03;25.40;91.10
53711;DHT22;39605;52.704;6.752;2022-08-21T14:38:29;25.30;91.10
53711;DHT22;39605;52.704;6.752;2022-08-21T14:41:03;25.30;91.90
53711;DHT22;39605;52.704;6.752;2022-08-21T14:43:30;25.20;92.10
53711;DHT22;39605;52.704;6.752;2022-08-21T14:45:56;25.20;91.90
53711;DHT22;39605;52.704;6.752;2022-08-21T14:48:22;25.20;91.80
53711;DHT22;39605;52.704;6.752;2022-08-21T14:50:47;25.20;92.50
53711;DHT22;39605;52.704;6.752;2022-08-21T14:53:13;25.30;93.10
53711;DHT22;39605;52.704;6.752;2022-08-21T14:55:40;25.40;93.20
53711;DHT22;39605;52.704;6.752;2022-08-21T14:58:24;25.50;94.00
53711;DHT22;39605;52.704;6.752;2022-08-21T15:00:51;25.50;92.00
53711;DHT22;39605;52.704;6.752;2022-08-21T15:03:18;25.60;92.50
53711;DHT22;39605;52.704;6.752;2022-08-21T15:05:44;25.50;92.50
53711;DHT22;39605;52.704;6.752;2022-08-21T15:08:10;25.40;92.30
53711;DHT22;39605;52.704;6.752;2022-08-21T15:10:36;25.40;93.20
53711;DHT22;39605;52.704;6.752;2022-08-21T15:13:02;25.20;92.10
53711;DHT22;39605;52.704;6.752;2022-08-21T15:15:35;25.20;92.40
53711;DHT22;39605;52.704;6.752;2022-08-21T15:18:03;25.10;91.90
53711;DHT22;39605;52.704;6.752;2022-08-21T15:20:28;25.10;92.80
53711;DHT22;39605;52.704;6.752;2022-08-21T15:22:54;25.00;93.00
53711;DHT22;39605;52.704;6.752;2022-08-21T15:25:19;24.90;92.90
53711;DHT22;39605;52.704;6.752;2022-08-21T15:27:45;24.80;93.00
53711;DHT22;39605;52.704;6.752;2022-08-21T15:30:11;24.80;93.80
53711;DHT22;39605;52.704;6.752;2022-08-21T15:32:37;24.80;93.60
53711;DHT22;39605;52.704;6.752;2022-08-21T15:35:03;24.70;94.20
53711;DHT22;39605;52.704;6.752;2022-08-21T15:37:29;24.70;92.90
53711;DHT22;39605;52.704;6.752;2022-08-21T15:39:55;24.70;94.80
53711;DHT22;39605;52.704;6.752;2022-08-21T15:42:21;24.70;94.00
53711;DHT22;39605;52.704;6.752;2022-08-21T15:44:47;24.60;94.40
53711;DHT22;39605;52.704;6.752;2022-08-21T15:47:19;24.60;93.70
53711;DHT22;39605;52.704;6.752;2022-08-21T15:49:46;24.60;93.90
53711;DHT22;39605;52.704;6.752;2022-08-21T15:52:18;24.50;93.70
53711;DHT22;39605;52.704;6.752;2022-08-21T15:54:44;24.50;92.70
53711;DHT22;39605;52.704;6.752;2022-08-21T15:57:23;24.50;93.20
53711;DHT22;39605;52.704;6.752;2022-08-21T15:59:51;24.40;93.70
53711;DHT22;39605;52.704;6.752;2022-08-21T16:02:28;24.40;93.40
53711;DHT22;39605;52.704;6.752;2022-08-21T16:04:56;24.30;94.00
53711;DHT22;39605;52.704;6.752;2022-08-21T16:07:22;24.20;94.20
53711;DHT22;39605;52.704;6.752;2022-08-21T16:09:48;24.20;94.30
53711;DHT22;39605;52.704;6.752;2022-08-21T16:12:21;24.10;95.40
53711;DHT22;39605;52.704;6.752;2022-08-21T16:14:47;24.00;95.40
53711;DHT22;39605;52.704;6.752;2022-08-21T16:17:15;24.00;95.10
53711;DHT22;39605;52.704;6.752;2022-08-21T16:19:41;24.00;95.60
53711;DHT22;39605;52.704;6.752;2022-08-21T16:22:07;24.00;96.00
53711;DHT22;39605;52.704;6.752;2022-08-21T16:24:33;23.90;95.40
53711;DHT22;39605;52.704;6.752;2022-08-21T16:26:59;23.90;96.00
53711;DHT22;39605;52.704;6.752;2022-08-21T16:29:32;23.80;95.30
53711;DHT22;39605;52.704;6.752;2022-08-21T16:31:58;23.70;95.00
53711;DHT22;39605;52.704;6.752;2022-08-21T16:34:24;23.60;96.20
53711;DHT22;39605;52.704;6.752;2022-08-21T16:36:50;23.60;96.40
53711;DHT22;39605;52.704;6.752;2022-08-21T16:39:16;23.60;96.10
53711;DHT22;39605;52.704;6.752;2022-08-21T16:41:41;23.50;97.00
53711;DHT22;39605;52.704;6.752;2022-08-21T16:44:07;23.50;97.00
53711;DHT22;39605;52.704;6.752;2022-08-21T16:46:36;23.50;98.10
53711;DHT22;39605;52.704;6.752;2022-08-21T16:49:03;23.50;97.50
53711;DHT22;39605;52.704;6.752;2022-08-21T16:51:29;23.50;98.10
53711;DHT22;39605;52.704;6.752;2022-08-21T16:53:57;23.50;97.20
53711;DHT22;39605;52.704;6.752;2022-08-21T16:56:23;23.50;97.70
53711;DHT22;39605;52.704;6.752;2022-08-21T16:58:49;23.40;96.60